sensor_id;sensor_type;location;lat;lon;timestamp;pressure;altitude;pressure_sealevel;temperature;humidity
73516;BME280;61763;51.416;5.442;2022-11-15T00:00:46;100749.16;;;7.16;100.00
73516;BME280;61763;51.416;5.442;2022-11-15T00:03:20;100748.97;;;7.21;100.00
73516;BME280;61763;51.416;5.442;2022-11-15T00:05:46;100748.00;;;7.23;100.00
73516;BME280;61763;51.416;5.442;2022-11-15T00:08:12;100743.38;;;7.27;100.00
73516;BME280;61763;51.416;5.442;2022-11-15T00:10:37;100750.38;;;7.31;100.00
73516;BME280;61763;51.416;5.442;2022-11-15T00:13:07;100743.97;;;7.35;100.00
73516;BME280;61763;51.416;5.442;2022-11-15T00:15:36;100746.59;;;7.36;100.00
73516;BME280;61763;51.416;5.442;2022-11-15T00:18:03;100745.69;;;7.36;100.00
73516;BME280;61763;51.416;5.442;2022-11-15T00:20:30;100749.91;;;7.43;100.00
73516;BME280;61763;51.416;5.442;2022-11-15T00:22:55;100748.09;;;7.44;100.00
73516;BME280;61763;51.416;5.442;2022-11-15T00:25:21;100742.81;;;7.42;100.00
73516;BME280;61763;51.416;5.442;2022-11-15T00:27:46;100746.03;;;7.50;100.00
73516;BME280;61763;51.416;5.442;2022-11-15T00:30:12;100739.81;;;7.50;100.00
73516;BME280;61763;51.416;5.442;2022-11-15T00:32:38;100742.81;;;7.64;100.00
73516;BME280;61763;51.416;5.442;2022-11-15T00:35:05;100742.75;;;7.66;100.00
73516;BME280;61763;51.416;5.442;2022-11-15T00:37:31;100739.25;;;7.64;100.00
73516;BME280;61763;51.416;5.442;2022-11-15T00:39:56;100741.88;;;7.65;100.00
73516;BME280;61763;51.416;5.442;2022-11-15T00:42:21;100741.75;;;7.68;100.00
73516;BME280;61763;51.416;5.442;2022-11-15T00:44:47;100746.25;;;7.68;100.00
73516;BME280;61763;51.416;5.442;2022-11-15T00:47:12;100737.28;;;7.69;100.00
73516;BME280;61763;51.416;5.442;2022-11-15T00:49:38;100732.63;;;7.72;100.00
73516;BME280;61763;51.416;5.442;2022-11-15T00:52:03;100725.53;;;7.71;100.00
73516;BME280;61763;51.416;5.442;2022-11-15T00:54:28;100733.69;;;7.68;100.00
73516;BME280;61763;51.416;5.442;2022-11-15T00:56:54;100728.75;;;7.80;100.00
73516;BME280;61763;51.416;5.442;2022-11-15T00:59:19;100727.97;;;7.78;100.00
73516;BME280;61763;51.416;5.442;2022-11-15T01:01:44;100726.00;;;7.81;100.00
73516;BME280;61763;51.416;5.442;2022-11-15T01:04:10;100731.91;;;7.91;100.00
73516;BME280;61763;51.416;5.442;2022-11-15T01:06:35;100721.22;;;7.89;100.00
73516;BME280;61763;51.416;5.442;2022-11-15T01:09:00;100726.47;;;7.93;100.00
73516;BME280;61763;51.416;5.442;2022-11-15T01:11:26;100722.78;;;7.95;100.00
73516;BME280;61763;51.416;5.442;2022-11-15T01:13:51;100722.78;;;7.95;100.00
73516;BME280;61763;51.416;5.442;2022-11-15T01:16:18;100714.84;;;7.92;100.00
73516;BME280;61763;51.416;5.442;2022-11-15T01:18:44;100714.66;;;7.97;100.00
73516;BME280;61763;51.416;5.442;2022-11-15T01:21:13;100719.69;;;8.04;100.00
73516;BME280;61763;51.416;5.442;2022-11-15T01:23:39;100718.69;;;8.07;100.00
73516;BME280;61763;51.416;5.442;2022-11-15T01:26:07;100712.22;;;8.11;100.00
73516;BME280;61763;51.416;5.442;2022-11-15T01:28:36;100715.75;;;8.13;100.00
73516;BME280;61763;51.416;5.442;2022-11-15T01:31:03;100712.84;;;8.18;100.00
73516;BME280;61763;51.416;5.442;2022-11-15T01:33:29;100707.09;;;8.27;100.00
73516;BME280;61763;51.416;5.442;2022-11-15T01:35:55;100706.19;;;8.49;100.00
73516;BME280;61763;51.416;5.442;2022-11-15T01:38:21;100700.25;;;8.61;100.00
73516;BME280;61763;51.416;5.442;2022-11-15T01:40:47;100703.34;;;8.72;100.00
73516;BME280;61763;51.416;5.442;2022-11-15T01:45:50;100693.91;;;8.83;100.00
73516;BME280;61763;51.416;5.442;2022-11-15T01:48:17;100694.88;;;9.01;100.00
73516;BME280;61763;51.416;5.442;2022-11-15T01:50:44;100692.19;;;9.01;100.00
73516;BME280;61763;51.416;5.442;2022-11-15T01:53:11;100694.66;;;9.05;100.00
73516;BME280;61763;51.416;5.442;2022-11-15T01:55:37;100690.75;;;9.12;100.00
73516;BME280;61763;51.416;5.442;2022-11-15T01:58:04;100686.47;;;9.08;100.00
73516;BME280;61763;51.416;5.442;2022-11-15T02:00:31;100691.50;;;9.16;100.00
73516;BME280;61763;51.416;5.442;2022-11-15T02:02:57;100688.50;;;9.22;100.00
73516;BME280;61763;51.416;5.442;2022-11-15T02:05:22;100691.91;;;9.26;100.00
73516;BME280;61763;51.416;5.442;2022-11-15T02:07:48;100686.19;;;9.34;100.00
73516;BME280;61763;51.416;5.442;2022-11-15T02:10:18;100683.66;;;9.31;100.00
73516;BME280;61763;51.416;5.442;2022-11-15T02:12:44;100682.59;;;9.33;100.00
73516;BME280;61763;51.416;5.442;2022-11-15T02:15:11;100681.75;;;9.33;100.00
73516;BME280;61763;51.416;5.442;2022-11-15T02:23:19;100680.44;;;9.41;100.00
73516;BME280;61763;51.416;5.442;2022-11-15T02:42:02;100664.69;;;9.51;100.00
73516;BME280;61763;51.416;5.442;2022-11-15T02:44:37;100666.06;;;9.60;100.00
73516;BME280;61763;51.416;5.442;2022-11-15T02:47:07;100670.41;;;9.62;100.00
73516;BME280;61763;51.416;5.442;2022-11-15T02:49:45;100657.22;;;9.75;100.00
73516;BME280;61763;51.416;5.442;2022-11-15T02:52:22;100655.94;;;9.65;100.00
73516;BME280;61763;51.416;5.442;2022-11-15T02:54:55;100663.69;;;9.71;100.00
73516;BME280;61763;51.416;5.442;2022-11-15T03:00:04;100645.81;;;9.70;100.00
73516;BME280;61763;51.416;5.442;2022-11-15T03:03:04;100642.38;;;9.67;100.00
73516;BME280;61763;51.416;5.442;2022-11-15T03:11:16;100627.41;;;9.78;100.00
73516;BME280;61763;51.416;5.442;2022-11-15T03:13:58;100621.78;;;9.83;100.00
73516;BME280;61763;51.416;5.442;2022-11-15T03:16:34;100634.00;;;9.90;100.00
73516;BME280;61763;51.416;5.442;2022-11-15T03:19:12;100630.69;;;9.85;100.00
73516;BME280;61763;51.416;5.442;2022-11-15T03:21:39;100626.47;;;9.79;100.00
73516;BME280;61763;51.416;5.442;2022-11-15T03:24:07;100624.91;;;9.93;100.00
73516;BME280;61763;51.416;5.442;2022-11-15T03:26:35;100629.63;;;9.88;100.00
73516;BME280;61763;51.416;5.442;2022-11-15T03:29:08;100633.91;;;9.92;100.00
73516;BME280;61763;51.416;5.442;2022-11-15T03:31:40;100636.16;;;9.84;100.00
73516;BME280;61763;51.416;5.442;2022-11-15T03:34:27;100637.88;;;9.85;100.00
73516;BME280;61763;51.416;5.442;2022-11-15T03:36:55;100635.50;;;9.78;100.00
73516;BME280;61763;51.416;5.442;2022-11-15T03:39:21;100640.03;;;9.78;100.00
73516;BME280;61763;51.416;5.442;2022-11-15T03:47:11;100633.63;;;9.80;100.00
73516;BME280;61763;51.416;5.442;2022-11-15T03:49:42;100640.88;;;9.78;100.00
73516;BME280;61763;51.416;5.442;2022-11-15T03:52:09;100642.81;;;9.76;100.00
73516;BME280;61763;51.416;5.442;2022-11-15T03:54:35;100640.09;;;9.76;100.00
73516;BME280;61763;51.416;5.442;2022-11-15T03:57:00;100629.41;;;9.75;100.00
73516;BME280;61763;51.416;5.442;2022-11-15T03:59:25;100634.06;;;9.71;100.00
73516;BME280;61763;51.416;5.442;2022-11-15T04:01:51;100634.13;;;9.70;100.00
73516;BME280;61763;51.416;5.442;2022-11-15T04:04:17;100633.28;;;9.69;100.00
73516;BME280;61763;51.416;5.442;2022-11-15T04:06:42;100629.63;;;9.70;100.00
73516;BME280;61763;51.416;5.442;2022-11-15T04:09:07;100638.50;;;9.72;100.00
73516;BME280;61763;51.416;5.442;2022-11-15T04:11:32;100634.06;;;9.71;100.00
73516;BME280;61763;51.416;5.442;2022-11-15T04:13:58;100634.78;;;9.75;100.00
73516;BME280;61763;51.416;5.442;2022-11-15T04:16:23;100622.03;;;9.78;100.00
73516;BME280;61763;51.416;5.442;2022-11-15T04:18:48;100630.50;;;9.71;100.00
73516;BME280;61763;51.416;5.442;2022-11-15T04:21:34;100629.06;;;9.63;100.00
73516;BME280;61763;51.416;5.442;2022-11-15T04:24:18;100638.16;;;9.61;100.00
73516;BME280;61763;51.416;5.442;2022-11-15T04:26:43;100634.44;;;9.63;100.00
73516;BME280;61763;51.416;5.442;2022-11-15T04:29:09;100629.06;;;9.63;100.00
73516;BME280;61763;51.416;5.442;2022-11-15T04:31:53;100630.81;;;9.64;100.00
73516;BME280;61763;51.416;5.442;2022-11-15T04:34:18;100633.66;;;9.61;100.00
73516;BME280;61763;51.416;5.442;2022-11-15T04:36:43;100634.69;;;9.59;100.00
73516;BME280;61763;51.416;5.442;2022-11-15T04:39:27;100631.59;;;9.67;100.00
73516;BME280;61763;51.416;5.442;2022-11-15T04:41:53;100637.06;;;9.65;100.00
73516;BME280;61763;51.416;5.442;2022-11-15T04:44:18;100642.53;;;9.63;100.00
73516;BME280;61763;51.416;5.442;2022-11-15T04:46:43;100638.16;;;9.61;100.00
73516;BME280;61763;51.416;5.442;2022-11-15T04:49:09;100638.97;;;9.63;100.00
73516;BME280;61763;51.416;5.442;2022-11-15T04:51:34;100638.97;;;9.63;100.00
73516;BME280;61763;51.416;5.442;2022-11-15T04:54:00;100633.59;;;9.63;100.00
73516;BME280;61763;51.416;5.442;2022-11-15T04:56:25;100632.63;;;9.64;100.00
73516;BME280;61763;51.416;5.442;2022-11-15T04:58:50;100625.66;;;9.60;100.00
73516;BME280;61763;51.416;5.442;2022-11-15T05:01:16;100632.84;;;9.59;100.00
73516;BME280;61763;51.416;5.442;2022-11-15T05:03:42;100627.22;;;9.64;100.00
73516;BME280;61763;51.416;5.442;2022-11-15T05:06:26;100637.06;;;9.65;100.00
73516;BME280;61763;51.416;5.442;2022-11-15T05:08:51;100618.63;;;9.75;100.00
73516;BME280;61763;51.416;5.442;2022-11-15T05:11:17;100627.25;;;9.81;100.00
73516;BME280;61763;51.416;5.442;2022-11-15T05:13:42;100631.31;;;9.90;100.00
73516;BME280;61763;51.416;5.442;2022-11-15T05:16:07;100631.53;;;9.86;100.00
73516;BME280;61763;51.416;5.442;2022-11-15T05:18:33;100626.94;;;9.88;100.00
73516;BME280;61763;51.416;5.442;2022-11-15T05:21:06;100621.47;;;9.89;100.00
73516;BME280;61763;51.416;5.442;2022-11-15T05:23:33;100626.72;;;9.92;100.00
73516;BME280;61763;51.416;5.442;2022-11-15T05:25:59;100617.59;;;9.95;100.00
73516;BME280;61763;51.416;5.442;2022-11-15T05:28:25;100610.59;;;9.91;100.00
73516;BME280;61763;51.416;5.442;2022-11-15T05:30:51;100610.91;;;9.85;100.00
73516;BME280;61763;51.416;5.442;2022-11-15T05:33:17;100605.63;;;9.83;100.00
73516;BME280;61763;51.416;5.442;2022-11-15T05:35:46;100608.63;;;9.77;100.00
73516;BME280;61763;51.416;5.442;2022-11-15T05:38:14;100605.84;;;9.78;100.00
73516;BME280;61763;51.416;5.442;2022-11-15T05:40:39;100603.16;;;9.78;100.00
73516;BME280;61763;51.416;5.442;2022-11-15T05:43:06;100605.16;;;9.75;100.00
73516;BME280;61763;51.416;5.442;2022-11-15T05:45:33;100615.69;;;9.79;100.00
73516;BME280;61763;51.416;5.442;2022-11-15T05:47:59;100617.28;;;9.84;100.00
73516;BME280;61763;51.416;5.442;2022-11-15T05:50:26;100626.22;;;9.84;100.00
73516;BME280;61763;51.416;5.442;2022-11-15T05:52:52;100622.34;;;9.90;100.00
73516;BME280;61763;51.416;5.442;2022-11-15T05:55:17;100619.66;;;9.90;100.00
73516;BME280;61763;51.416;5.442;2022-11-15T05:57:43;100623.88;;;9.95;100.00
73516;BME280;61763;51.416;5.442;2022-11-15T06:00:09;100628.28;;;9.96;100.00
73516;BME280;61763;51.416;5.442;2022-11-15T06:02:34;100631.16;;;9.93;100.00
73516;BME280;61763;51.416;5.442;2022-11-15T06:05:00;100628.13;;;9.99;100.00
73516;BME280;61763;51.416;5.442;2022-11-15T06:07:25;100628.22;;;9.98;100.00
73516;BME280;61763;51.416;5.442;2022-11-15T06:09:50;100636.13;;;10.01;100.00
73516;BME280;61763;51.416;5.442;2022-11-15T06:12:16;100632.50;;;10.02;100.00
73516;BME280;61763;51.416;5.442;2022-11-15T06:14:41;100625.22;;;10.04;100.00
73516;BME280;61763;51.416;5.442;2022-11-15T06:17:06;100626.09;;;10.05;100.00
73516;BME280;61763;51.416;5.442;2022-11-15T06:19:32;100645.28;;;9.98;100.00
73516;BME280;61763;51.416;5.442;2022-11-15T06:22:00;100642.59;;;9.98;100.00
73516;BME280;61763;51.416;5.442;2022-11-15T06:24:25;100644.53;;;9.95;100.00
73516;BME280;61763;51.416;5.442;2022-11-15T06:26:51;100640.44;;;10.05;100.00
73516;BME280;61763;51.416;5.442;2022-11-15T06:29:16;100636.22;;;9.99;100.00
73516;BME280;61763;51.416;5.442;2022-11-15T06:31:41;100646.16;;;9.99;100.00
73516;BME280;61763;51.416;5.442;2022-11-15T06:34:07;100642.94;;;9.91;100.00
73516;BME280;61763;51.416;5.442;2022-11-15T06:36:34;100644.72;;;9.92;100.00
73516;BME280;61763;51.416;5.442;2022-11-15T06:39:00;100648.13;;;9.78;100.00
73516;BME280;61763;51.416;5.442;2022-11-15T06:41:25;100648.56;;;9.69;100.00
73516;BME280;61763;51.416;5.442;2022-11-15T06:43:50;100648.63;;;9.67;100.00
73516;BME280;61763;51.416;5.442;2022-11-15T06:46:16;100647.84;;;9.65;100.00
73516;BME280;61763;51.416;5.442;2022-11-15T06:48:41;100652.22;;;9.68;100.00
73516;BME280;61763;51.416;5.442;2022-11-15T06:51:06;100656.25;;;9.59;100.00
73516;BME280;61763;51.416;5.442;2022-11-15T06:53:33;100652.88;;;9.54;100.00
73516;BME280;61763;51.416;5.442;2022-11-15T06:56:03;100660.88;;;9.55;100.00
73516;BME280;61763;51.416;5.442;2022-11-15T06:58:30;100669.72;;;9.59;100.00
73516;BME280;61763;51.416;5.442;2022-11-15T07:01:04;100669.84;;;9.56;100.00
73516;BME280;61763;51.416;5.442;2022-11-15T07:03:30;100670.81;;;9.55;100.00
73516;BME280;61763;51.416;5.442;2022-11-15T07:05:57;100670.88;;;9.53;100.00
73516;BME280;61763;51.416;5.442;2022-11-15T07:08:24;100669.94;;;9.54;100.00
73516;BME280;61763;51.416;5.442;2022-11-15T07:10:51;100676.41;;;9.50;100.00
73516;BME280;61763;51.416;5.442;2022-11-15T07:13:17;100669.28;;;9.49;100.00
73516;BME280;61763;51.416;5.442;2022-11-15T07:15:42;100681.66;;;9.53;100.00
73516;BME280;61763;51.416;5.442;2022-11-15T07:18:08;100688.88;;;9.53;100.00
73516;BME280;61763;51.416;5.442;2022-11-15T07:20:33;100680.13;;;9.47;100.00
73516;BME280;61763;51.416;5.442;2022-11-15T07:23:03;100689.06;;;9.48;100.00
73516;BME280;61763;51.416;5.442;2022-11-15T07:25:29;100688.94;;;9.51;100.00
73516;BME280;61763;51.416;5.442;2022-11-15T07:27:55;100683.47;;;9.53;100.00
73516;BME280;61763;51.416;5.442;2022-11-15T07:30:22;100695.13;;;9.53;100.00
73516;BME280;61763;51.416;5.442;2022-11-15T07:32:51;100695.34;;;9.49;100.00
73516;BME280;61763;51.416;5.442;2022-11-15T07:35:16;100693.75;;;9.44;100.00
73516;BME280;61763;51.416;5.442;2022-11-15T07:37:42;100699.44;;;9.38;100.00
73516;BME280;61763;51.416;5.442;2022-11-15T07:40:08;100689.59;;;9.37;100.00
73516;BME280;61763;51.416;5.442;2022-11-15T07:42:33;100682.34;;;9.39;100.00
73516;BME280;61763;51.416;5.442;2022-11-15T07:45:20;100683.72;;;9.29;100.00
73516;BME280;61763;51.416;5.442;2022-11-15T07:47:49;100685.38;;;9.32;100.00
73516;BME280;61763;51.416;5.442;2022-11-15T07:50:16;100683.66;;;9.31;100.00
73516;BME280;61763;51.416;5.442;2022-11-15T07:52:42;100672.50;;;9.19;100.00
73516;BME280;61763;51.416;5.442;2022-11-15T07:55:07;100671.97;;;9.11;100.00
73516;BME280;61763;51.416;5.442;2022-11-15T07:57:33;100672.94;;;9.10;100.00
73516;BME280;61763;51.416;5.442;2022-11-15T08:00:00;100680.22;;;9.27;100.00
73516;BME280;61763;51.416;5.442;2022-11-15T08:02:25;100687.91;;;9.35;100.00
73516;BME280;61763;51.416;5.442;2022-11-15T08:04:50;100689.03;;;9.31;100.00
73516;BME280;61763;51.416;5.442;2022-11-15T08:07:16;100702.28;;;9.35;100.00
73516;BME280;61763;51.416;5.442;2022-11-15T08:09:41;100694.41;;;9.31;100.00
73516;BME280;61763;51.416;5.442;2022-11-15T08:12:07;100694.59;;;9.26;100.00
73516;BME280;61763;51.416;5.442;2022-11-15T08:14:32;100700.00;;;9.26;100.00
73516;BME280;61763;51.416;5.442;2022-11-15T08:16:59;100704.16;;;9.33;100.00
73516;BME280;61763;51.416;5.442;2022-11-15T08:19:25;100699.28;;;9.22;100.00
73516;BME280;61763;51.416;5.442;2022-11-15T08:21:50;100695.81;;;9.20;100.00
73516;BME280;61763;51.416;5.442;2022-11-15T08:24:15;100691.44;;;9.18;100.00
73516;BME280;61763;51.416;5.442;2022-11-15T08:26:41;100692.28;;;9.18;100.00
73516;BME280;61763;51.416;5.442;2022-11-15T08:29:06;100682.09;;;9.06;100.00
73516;BME280;61763;51.416;5.442;2022-11-15T08:31:35;100685.50;;;9.09;100.00
73516;BME280;61763;51.416;5.442;2022-11-15T08:34:04;100678.66;;;9.02;100.00
73516;BME280;61763;51.416;5.442;2022-11-15T08:36:31;100675.03;;;9.03;100.00
73516;BME280;61763;51.416;5.442;2022-11-15T08:38:58;100670.03;;;9.15;100.00
73516;BME280;61763;51.416;5.442;2022-11-15T08:41:33;100667.41;;;9.13;100.00
73516;BME280;61763;51.416;5.442;2022-11-15T08:43:59;100670.03;;;9.15;100.00
73516;BME280;61763;51.416;5.442;2022-11-15T08:46:26;100661.34;;;9.27;100.00
73516;BME280;61763;51.416;5.442;2022-11-15T08:48:51;100656.78;;;9.29;100.00
73516;BME280;61763;51.416;5.442;2022-11-15T08:51:18;100649.94;;;9.41;100.00
73516;BME280;61763;51.416;5.442;2022-11-15T08:53:44;100654.78;;;9.52;100.00
73516;BME280;61763;51.416;5.442;2022-11-15T08:56:10;100654.00;;;9.50;100.00
73516;BME280;61763;51.416;5.442;2022-11-15T08:58:36;100648.38;;;9.54;100.00
73516;BME280;61763;51.416;5.442;2022-11-15T09:01:03;100650.69;;;9.62;100.00
73516;BME280;61763;51.416;5.442;2022-11-15T09:03:28;100646.31;;;9.59;100.00
73516;BME280;61763;51.416;5.442;2022-11-15T09:05:58;100641.13;;;9.74;100.00
73516;BME280;61763;51.416;5.442;2022-11-15T09:08:26;100637.34;;;9.78;100.00
73516;BME280;61763;51.416;5.442;2022-11-15T09:10:56;100625.38;;;9.84;100.00
73516;BME280;61763;51.416;5.442;2022-11-15T09:13:21;100619.00;;;9.85;100.00
73516;BME280;61763;51.416;5.442;2022-11-15T09:15:47;100624.31;;;9.86;100.00
73516;BME280;61763;51.416;5.442;2022-11-15T09:18:12;100618.69;;;9.91;100.00
73516;BME280;61763;51.416;5.442;2022-11-15T09:20:39;100613.28;;;9.91;100.00
73516;BME280;61763;51.416;5.442;2022-11-15T09:23:05;100619.44;;;9.94;100.00
73516;BME280;61763;51.416;5.442;2022-11-15T09:25:31;100610.22;;;9.98;100.00
73516;BME280;61763;51.416;5.442;2022-11-15T09:27:57;100607.91;;;10.08;100.00
73516;BME280;61763;51.416;5.442;2022-11-15T09:30:24;100611.25;;;10.13;100.00
73516;BME280;61763;51.416;5.442;2022-11-15T09:32:50;100611.25;;;10.13;100.00
73516;BME280;61763;51.416;5.442;2022-11-15T09:35:15;100618.00;;;10.22;100.00
73516;BME280;61763;51.416;5.442;2022-11-15T09:37:41;100594.16;;;10.30;100.00
73516;BME280;61763;51.416;5.442;2022-11-15T09:40:14;100605.63;;;10.36;100.00
73516;BME280;61763;51.416;5.442;2022-11-15T09:45:37;100610.94;;;10.20;100.00
73516;BME280;61763;51.416;5.442;2022-11-15T09:49:02;100603.69;;;10.20;100.00
73516;BME280;61763;51.416;5.442;2022-11-15T09:51:34;100602.91;;;10.18;100.00
73516;BME280;61763;51.416;5.442;2022-11-15T09:54:12;100601.41;;;10.30;100.00
73516;BME280;61763;51.416;5.442;2022-11-15T09:56:41;100594.41;;;10.26;100.00
73516;BME280;61763;51.416;5.442;2022-11-15T10:04:42;100589.59;;;10.32;97.26
73516;BME280;61763;51.416;5.442;2022-11-15T10:07:27;100595.69;;;10.36;97.96
73516;BME280;61763;51.416;5.442;2022-11-15T10:12:25;100597.94;;;10.45;95.75
73516;BME280;61763;51.416;5.442;2022-11-15T10:15:00;100594.34;;;10.45;94.94
73516;BME280;61763;51.416;5.442;2022-11-15T10:17:41;100592.03;;;10.55;94.17
73516;BME280;61763;51.416;5.442;2022-11-15T10:20:21;100586.28;;;10.61;95.30
73516;BME280;61763;51.416;5.442;2022-11-15T10:22:56;100582.47;;;10.65;94.64
73516;BME280;61763;51.416;5.442;2022-11-15T10:25:24;100591.00;;;10.73;92.20
73516;BME280;61763;51.416;5.442;2022-11-15T10:27:59;100576.44;;;10.60;93.89
73516;BME280;61763;51.416;5.442;2022-11-15T10:30:34;100576.19;;;10.64;93.69
73516;BME280;61763;51.416;5.442;2022-11-15T10:33:12;100578.88;;;10.64;93.53
73516;BME280;61763;51.416;5.442;2022-11-15T10:35:39;100569.06;;;10.63;91.55
73516;BME280;61763;51.416;5.442;2022-11-15T10:38:09;100567.41;;;10.61;92.50
73516;BME280;61763;51.416;5.442;2022-11-15T10:40:36;100566.94;;;10.52;94.81
73516;BME280;61763;51.416;5.442;2022-11-15T10:45:39;100549.47;;;10.76;92.32
73516;BME280;61763;51.416;5.442;2022-11-15T10:50:49;100547.72;;;10.75;92.42
73516;BME280;61763;51.416;5.442;2022-11-15T10:55:54;100541.56;;;11.04;90.03
73516;BME280;61763;51.416;5.442;2022-11-15T10:58:34;100526.69;;;11.13;90.14
73516;BME280;61763;51.416;5.442;2022-11-15T11:01:18;100530.69;;;11.22;90.07
73516;BME280;61763;51.416;5.442;2022-11-15T11:04:01;100527.09;;;11.21;89.77
73516;BME280;61763;51.416;5.442;2022-11-15T11:06:27;100530.63;;;11.38;87.08
73516;BME280;61763;51.416;5.442;2022-11-15T11:09:04;100529.41;;;11.44;86.90
73516;BME280;61763;51.416;5.442;2022-11-15T11:11:51;100518.41;;;11.47;84.67
73516;BME280;61763;51.416;5.442;2022-11-15T11:14:23;100515.88;;;11.44;85.45
73516;BME280;61763;51.416;5.442;2022-11-15T11:16:54;100510.28;;;11.32;86.85
73516;BME280;61763;51.416;5.442;2022-11-15T11:19:46;100495.66;;;11.20;87.17
73516;BME280;61763;51.416;5.442;2022-11-15T11:31:25;100470.09;;;11.56;84.92
73516;BME280;61763;51.416;5.442;2022-11-15T11:36:48;100459.78;;;11.78;82.42
73516;BME280;61763;51.416;5.442;2022-11-15T11:39:49;100453.47;;;11.93;81.42
73516;BME280;61763;51.416;5.442;2022-11-15T11:48:18;100432.63;;;12.24;78.89
73516;BME280;61763;51.416;5.442;2022-11-15T11:50:46;100431.75;;;12.23;80.05
73516;BME280;61763;51.416;5.442;2022-11-15T11:53:17;100418.97;;;12.40;78.22
73516;BME280;61763;51.416;5.442;2022-11-15T11:55:51;100420.69;;;12.41;76.56
73516;BME280;61763;51.416;5.442;2022-11-15T11:58:38;100424.28;;;12.27;77.87
73516;BME280;61763;51.416;5.442;2022-11-15T12:01:28;100409.22;;;12.23;77.67
73516;BME280;61763;51.416;5.442;2022-11-15T12:09:38;100397.34;;;12.25;78.49
73516;BME280;61763;51.416;5.442;2022-11-15T12:12:27;100391.63;;;12.30;75.61
73516;BME280;61763;51.416;5.442;2022-11-15T12:14:57;100392.22;;;12.35;77.54
73516;BME280;61763;51.416;5.442;2022-11-15T12:17:27;100387.00;;;12.59;75.32
73516;BME280;61763;51.416;5.442;2022-11-15T12:19:58;100380.34;;;12.65;75.12
73516;BME280;61763;51.416;5.442;2022-11-15T12:22:33;100378.28;;;12.69;71.17
73516;BME280;61763;51.416;5.442;2022-11-15T12:28:06;100363.28;;;12.50;72.31
73516;BME280;61763;51.416;5.442;2022-11-15T12:31:01;100356.13;;;12.49;72.66
73516;BME280;61763;51.416;5.442;2022-11-15T12:33:36;100360.09;;;12.43;74.11
73516;BME280;61763;51.416;5.442;2022-11-15T12:36:09;100349.16;;;12.45;72.52
73516;BME280;61763;51.416;5.442;2022-11-15T13:17:58;100280.91;;;12.27;74.46
73516;BME280;61763;51.416;5.442;2022-11-15T13:20:29;100276.88;;;12.47;73.28
73516;BME280;61763;51.416;5.442;2022-11-15T13:30:54;100265.44;;;12.29;75.44
73516;BME280;61763;51.416;5.442;2022-11-15T13:33:25;100264.16;;;12.35;74.70
73516;BME280;61763;51.416;5.442;2022-11-15T13:35:56;100261.38;;;12.49;73.38
73516;BME280;61763;51.416;5.442;2022-11-15T13:40:50;100244.47;;;12.33;73.90
73516;BME280;61763;51.416;5.442;2022-11-15T13:46:16;100234.66;;;12.44;74.29
73516;BME280;61763;51.416;5.442;2022-11-15T13:48:44;100231.63;;;12.22;74.32
73516;BME280;61763;51.416;5.442;2022-11-15T13:56:27;100217.66;;;12.15;75.79
73516;BME280;61763;51.416;5.442;2022-11-15T13:58:54;100212.06;;;12.18;76.09
73516;BME280;61763;51.416;5.442;2022-11-15T14:01:21;100212.31;;;12.01;77.48
73516;BME280;61763;51.416;5.442;2022-11-15T14:06:19;100207.22;;;11.96;76.86
73516;BME280;61763;51.416;5.442;2022-11-15T14:09:22;100197.94;;;12.00;76.71
73516;BME280;61763;51.416;5.442;2022-11-15T14:11:53;100198.69;;;12.02;78.01
73516;BME280;61763;51.416;5.442;2022-11-15T14:14:21;100192.84;;;11.96;77.43
73516;BME280;61763;51.416;5.442;2022-11-15T14:16:50;100183.72;;;11.97;77.48
73516;BME280;61763;51.416;5.442;2022-11-15T14:22:14;100179.84;;;12.01;77.52
73516;BME280;61763;51.416;5.442;2022-11-15T14:24:43;100169.34;;;11.96;78.10
73516;BME280;61763;51.416;5.442;2022-11-15T14:27:35;100172.34;;;11.91;78.38
73516;BME280;61763;51.416;5.442;2022-11-15T14:30:01;100161.63;;;11.90;79.18
73516;BME280;61763;51.416;5.442;2022-11-15T14:32:30;100157.94;;;11.91;79.22
73516;BME280;61763;51.416;5.442;2022-11-15T14:35:02;100161.81;;;11.87;79.66
73516;BME280;61763;51.416;5.442;2022-11-15T14:37:34;100146.16;;;11.92;79.74
73516;BME280;61763;51.416;5.442;2022-11-15T14:40:01;100148.41;;;11.85;80.14
73516;BME280;61763;51.416;5.442;2022-11-15T14:42:27;100142.59;;;11.91;79.96
73516;BME280;61763;51.416;5.442;2022-11-15T14:44:52;100136.81;;;11.83;80.90
73516;BME280;61763;51.416;5.442;2022-11-15T14:47:18;100135.84;;;11.84;81.33
73516;BME280;61763;51.416;5.442;2022-11-15T14:49:44;100131.09;;;11.88;81.82
73516;BME280;61763;51.416;5.442;2022-11-15T14:52:32;100121.59;;;11.82;81.69
73516;BME280;61763;51.416;5.442;2022-11-15T14:55:03;100115.97;;;11.85;82.41
73516;BME280;61763;51.416;5.442;2022-11-15T14:57:34;100106.47;;;11.92;81.76
73516;BME280;61763;51.416;5.442;2022-11-15T15:00:00;100112.38;;;11.85;82.78
73516;BME280;61763;51.416;5.442;2022-11-15T15:02:26;100102.50;;;11.71;83.69
73516;BME280;61763;51.416;5.442;2022-11-15T15:04:53;100106.75;;;11.75;82.89
73516;BME280;61763;51.416;5.442;2022-11-15T15:07:19;100093.75;;;11.95;81.93
73516;BME280;61763;51.416;5.442;2022-11-15T15:09:45;100093.03;;;11.91;82.23
73516;BME280;61763;51.416;5.442;2022-11-15T15:12:18;100088.56;;;11.77;83.17
73516;BME280;61763;51.416;5.442;2022-11-15T15:14:45;100085.91;;;11.90;82.68
73516;BME280;61763;51.416;5.442;2022-11-15T15:17:11;100087.50;;;11.80;83.12
73516;BME280;61763;51.416;5.442;2022-11-15T15:19:38;100077.13;;;11.73;83.70
73516;BME280;61763;51.416;5.442;2022-11-15T15:22:04;100079.00;;;11.58;84.45
73516;BME280;61763;51.416;5.442;2022-11-15T15:24:30;100085.50;;;11.69;84.08
73516;BME280;61763;51.416;5.442;2022-11-15T15:26:55;100079.25;;;11.68;83.95